Time;durP1;ratioP1;P1;durP2;ratioP2;P2;SDS_P1;SDS_P2;PMS_P1;PMS_P2;Temp;Humidity;BMP_temperature;BMP_pressure;BME280_temperature;BME280_humidity;BME280_pressure;Samples;Min_cycle;Max_cycle;Signal;HPM_P1;HPM_P2
2021/01/23 00:00:14;;;;;;;7.37;5.43;;;2.20;99.90;;;;;;4973431;28;20171;-78
2021/01/23 00:02:40;;;;;;;7.80;6.18;;;2.10;99.90;;;;;;4955759;28;20207;-78
2021/01/23 00:05:06;;;;;;;7.70;5.83;;;2.10;99.90;;;;;;4955838;28;20214;-79
2021/01/23 00:07:32;;;;;;;9.43;5.78;;;2.10;99.90;;;;;;4972636;28;20459;-79
2021/01/23 00:09:58;;;;;;;6.97;6.33;;;2.10;99.90;;;;;;4973177;28;20202;-78
2021/01/23 00:12:23;;;;;;;10.77;6.17;;;2.10;99.90;;;;;;4972810;28;20585;-78
2021/01/23 00:14:49;;;;;;;10.17;6.80;;;2.10;99.90;;;;;;4973133;28;20199;-78
2021/01/23 00:17:15;;;;;;;8.57;6.47;;;2.10;99.90;;;;;;4972507;28;20688;-79
2021/01/23 00:19:40;;;;;;;13.30;7.47;;;2.10;99.90;;;;;;4972961;28;20202;-79
2021/01/23 00:22:06;;;;;;;8.80;6.73;;;2.10;99.90;;;;;;4955025;28;20219;-78
2021/01/23 00:24:32;;;;;;;7.00;5.63;;;2.10;99.90;;;;;;4955538;28;20206;-78
2021/01/23 00:26:57;;;;;;;12.73;6.60;;;2.10;99.90;;;;;;4972144;28;20206;-78
2021/01/23 00:29:23;;;;;;;5.93;5.33;;;2.10;99.90;;;;;;4972975;28;20207;-78
2021/01/23 00:31:49;;;;;;;8.73;6.23;;;2.10;99.90;;;;;;4972354;28;20199;-78
2021/01/23 00:34:14;;;;;;;9.63;5.63;;;2.00;99.90;;;;;;4972439;28;20183;-78
2021/01/23 00:36:40;;;;;;;5.47;4.97;;;2.00;99.90;;;;;;4972203;28;20217;-78
2021/01/23 00:39:06;;;;;;;6.00;5.40;;;2.00;99.90;;;;;;4972867;28;20470;-78
2021/01/23 00:41:33;;;;;;;7.18;5.30;;;1.90;99.90;;;;;;4954502;28;20195;-79
2021/01/23 00:43:58;;;;;;;6.13;5.05;;;1.90;99.90;;;;;;4972152;28;20690;-79
2021/01/23 00:46:24;;;;;;;7.60;5.43;;;1.80;99.90;;;;;;4972817;28;20246;-79
2021/01/23 00:48:50;;;;;;;5.65;4.85;;;1.80;99.90;;;;;;4972360;28;20211;-78
2021/01/23 00:51:16;;;;;;;9.57;5.47;;;1.80;99.90;;;;;;4972674;28;20399;-78
2021/01/23 00:53:44;;;;;;;7.53;5.60;;;1.70;99.90;;;;;;4972082;28;20255;-78
2021/01/23 00:56:10;;;;;;;12.05;5.95;;;1.70;99.90;;;;;;4972578;28;20313;-79
2021/01/23 00:58:35;;;;;;;6.00;5.40;;;1.70;99.90;;;;;;4954382;28;20211;-78
2021/01/23 01:01:01;;;;;;;7.10;5.30;;;1.70;99.90;;;;;;4972960;28;20638;-78
2021/01/23 01:03:27;;;;;;;17.10;5.68;;;1.70;99.90;;;;;;4971932;28;20288;-78
2021/01/23 01:05:52;;;;;;;5.90;4.60;;;1.70;99.90;;;;;;4972455;28;20206;-79
2021/01/23 01:08:18;;;;;;;6.57;5.17;;;1.80;99.90;;;;;;4972024;28;20663;-78
2021/01/23 01:10:47;;;;;;;7.60;4.67;;;1.80;99.90;;;;;;4972948;28;20237;-78
2021/01/23 01:13:13;;;;;;;5.55;4.40;;;1.80;99.90;;;;;;4972140;28;20230;-79
2021/01/23 01:15:39;;;;;;;5.72;4.63;;;1.80;99.90;;;;;;4972796;28;20183;-78
2021/01/23 01:18:06;;;;;;;8.20;4.40;;;1.80;99.90;;;;;;4971478;28;20218;-79
2021/01/23 01:20:31;;;;;;;6.82;4.35;;;1.80;99.90;;;;;;4972659;28;20972;-78
2021/01/23 01:22:57;;;;;;;9.70;4.60;;;1.90;99.90;;;;;;4971842;28;20223;-79
2021/01/23 01:25:23;;;;;;;7.10;5.40;;;1.90;99.90;;;;;;4972396;28;20231;-78
2021/01/23 01:27:49;;;;;;;6.57;4.87;;;1.90;99.90;;;;;;4971972;28;20549;-79
2021/01/23 01:30:15;;;;;;;7.50;4.10;;;1.90;99.90;;;;;;4955008;28;20286;-79
2021/01/23 01:32:41;;;;;;;8.52;5.68;;;1.90;99.90;;;;;;4971916;28;20287;-78
2021/01/23 01:35:07;;;;;;;10.40;4.70;;;1.90;99.90;;;;;;4972117;28;20191;-78
2021/01/23 01:37:33;;;;;;;5.93;4.55;;;2.00;99.90;;;;;;4971494;28;20222;-79
2021/01/23 01:39:59;;;;;;;7.63;4.80;;;2.10;99.90;;;;;;4972617;28;20203;-78
2021/01/23 01:42:24;;;;;;;9.23;5.37;;;2.10;99.90;;;;;;4971783;28;20218;-79
2021/01/23 01:44:50;;;;;;;6.97;4.57;;;2.20;99.90;;;;;;4971616;28;20197;-78
2021/01/23 01:47:17;;;;;;;9.23;4.83;;;2.10;99.90;;;;;;4971922;28;20219;-79
2021/01/23 01:49:43;;;;;;;5.85;4.40;;;2.10;99.90;;;;;;4971927;28;20195;-79
2021/01/23 01:52:10;;;;;;;5.65;4.20;;;2.20;99.90;;;;;;4973043;28;20297;-78
2021/01/23 01:54:36;;;;;;;4.22;3.78;;;2.20;99.90;;;;;;4975666;28;20201;-78
2021/01/23 01:57:02;;;;;;;6.25;4.63;;;2.10;99.90;;;;;;4974911;28;20226;-78
2021/01/23 01:59:28;;;;;;;5.88;4.55;;;2.10;99.90;;;;;;4975767;28;20195;-78
2021/01/23 02:02:16;;;;;;;4.77;4.00;;;2.00;99.90;;;;;;4975803;28;20561;-78
2021/01/23 02:05:07;;;;;;;7.65;4.35;;;2.00;99.90;;;;;;4975309;28;20202;-78
2021/01/23 02:07:55;;;;;;;5.00;3.78;;;2.00;99.90;;;;;;4974944;28;20223;-78
2021/01/23 02:10:46;;;;;;;5.05;3.70;;;2.10;99.90;;;;;;4975319;28;20214;-79
2021/01/23 02:13:25;;;;;;;4.80;3.50;;;2.00;99.90;;;;;;4974855;28;20223;-78
2021/01/23 02:16:15;;;;;;;7.68;4.72;;;1.90;99.90;;;;;;4965850;28;20337;-79
2021/01/23 02:19:16;;;;;;;9.25;5.82;;;1.90;99.90;;;;;;4974563;28;20579;-79
2021/01/23 02:22:19;;;;;;;16.75;10.77;;;1.90;99.90;;;;;;4975457;28;20210;-78
2021/01/23 02:24:49;;;;;;;7.95;6.35;;;1.90;99.90;;;;;;4974566;28;20226;-78
2021/01/23 02:27:41;;;;;;;6.97;5.72;;;1.90;99.90;;;;;;4973899;28;20219;-78
2021/01/23 02:30:20;;;;;;;12.00;6.30;;;1.90;99.90;;;;;;4975059;28;20195;-78
2021/01/23 02:32:51;;;;;;;5.22;4.60;;;1.90;99.90;;;;;;4973517;28;20226;-79
2021/01/23 02:35:18;;;;;;;8.75;5.00;;;2.00;99.90;;;;;;4974907;28;20607;-78
2021/01/23 02:37:45;;;;;;;8.48;4.25;;;2.00;99.90;;;;;;4974330;28;20297;-79
2021/01/23 02:40:12;;;;;;;8.93;4.05;;;2.00;99.90;;;;;;4975272;28;20202;-79
2021/01/23 02:42:37;;;;;;;8.23;4.40;;;2.10;99.90;;;;;;4974281;28;20219;-78
2021/01/23 02:45:08;;;;;;;13.97;4.30;;;2.10;99.90;;;;;;4971005;28;20257;-79
2021/01/23 02:47:34;;;;;;;8.98;4.10;;;2.10;99.90;;;;;;4974338;28;20298;-79
2021/01/23 02:50:01;;;;;;;8.47;4.07;;;2.20;99.90;;;;;;4974823;28;20286;-78
2021/01/23 02:52:57;;;;;;;6.00;4.63;;;2.20;99.90;;;;;;4973981;28;20261;-78
2021/01/23 02:55:28;;;;;;;6.00;4.60;;;2.30;99.90;;;;;;4973266;28;20254;-78
2021/01/23 02:57:56;;;;;;;8.45;5.22;;;2.40;99.90;;;;;;4973532;28;20215;-78
2021/01/23 03:00:23;;;;;;;6.97;4.72;;;2.40;99.90;;;;;;4974787;28;20677;-78
2021/01/23 03:02:54;;;;;;;7.63;5.50;;;2.50;99.90;;;;;;4956334;28;20589;-79
2021/01/23 03:05:23;;;;;;;7.38;5.57;;;2.60;99.90;;;;;;4973876;28;20545;-78
2021/01/23 03:07:52;;;;;;;7.53;5.53;;;2.60;99.90;;;;;;4973939;28;20689;-78
2021/01/23 03:10:18;;;;;;;10.15;6.10;;;2.60;99.90;;;;;;4974469;28;20641;-78
2021/01/23 03:12:44;;;;;;;6.60;5.50;;;2.70;99.90;;;;;;4973687;28;20384;-78
2021/01/23 03:15:11;;;;;;;7.23;6.00;;;2.70;99.90;;;;;;4974048;28;20194;-78
2021/01/23 03:17:36;;;;;;;7.00;5.88;;;2.80;99.90;;;;;;4973775;28;20218;-79
2021/01/23 03:20:03;;;;;;;8.93;6.60;;;2.80;99.90;;;;;;4972860;28;20246;-78
2021/01/23 03:22:28;;;;;;;9.05;6.28;;;2.70;99.90;;;;;;4973848;28;20242;-78
2021/01/23 03:24:54;;;;;;;7.13;5.67;;;2.70;99.90;;;;;;4974034;28;20230;-78
2021/01/23 03:27:19;;;;;;;9.13;6.00;;;2.80;99.90;;;;;;4973464;28;20257;-78
2021/01/23 03:29:45;;;;;;;8.50;5.87;;;2.80;99.90;;;;;;4974025;28;20539;-78
2021/01/23 03:32:11;;;;;;;7.37;6.33;;;2.80;99.90;;;;;;4973555;28;20571;-78
2021/01/23 03:34:36;;;;;;;10.00;5.47;;;2.80;99.90;;;;;;4973709;28;20674;-78
2021/01/23 03:37:02;;;;;;;8.37;5.80;;;2.90;99.90;;;;;;4972960;28;21813;-78
2021/01/23 03:39:28;;;;;;;8.57;5.73;;;2.90;99.90;;;;;;4973209;28;20183;-78
2021/01/23 03:41:53;;;;;;;7.67;6.10;;;2.90;99.90;;;;;;4974214;28;20186;-78
2021/01/23 03:44:19;;;;;;;10.37;6.63;;;3.00;99.90;;;;;;4973531;28;20199;-78
2021/01/23 03:46:45;;;;;;;10.53;6.83;;;2.90;99.90;;;;;;4973054;28;20214;-78
2021/01/23 03:49:10;;;;;;;10.60;5.80;;;2.90;99.90;;;;;;4973241;28;20199;-79
2021/01/23 03:51:36;;;;;;;6.90;6.10;;;3.00;99.90;;;;;;4973774;28;20242;-78
2021/01/23 03:54:01;;;;;;;7.33;5.23;;;3.00;99.90;;;;;;4972524;28;20226;-78
2021/01/23 03:56:27;;;;;;;8.70;6.70;;;3.00;99.90;;;;;;4973500;28;20239;-79
2021/01/23 03:58:53;;;;;;;7.10;5.90;;;3.00;99.90;;;;;;4972100;28;20310;-79
2021/01/23 04:01:18;;;;;;;9.43;7.17;;;3.00;99.90;;;;;;4973608;28;20306;-78
2021/01/23 04:03:44;;;;;;;14.63;6.80;;;3.00;99.90;;;;;;4981053;28;20645;-78
2021/01/23 04:06:10;;;;;;;11.50;7.37;;;3.00;99.90;;;;;;4979549;28;20606;-78
2021/01/23 04:08:35;;;;;;;8.80;6.57;;;3.00;99.90;;;;;;4972245;28;20551;-78
2021/01/23 04:11:01;;;;;;;9.73;6.80;;;3.10;99.90;;;;;;4972937;28;20558;-78
2021/01/23 04:13:27;;;;;;;10.37;6.60;;;3.10;99.90;;;;;;4972422;28;20231;-79
2021/01/23 04:15:53;;;;;;;12.73;7.90;;;3.20;99.90;;;;;;4973196;28;20195;-79
2021/01/23 04:18:19;;;;;;;13.15;7.22;;;3.20;99.90;;;;;;4972562;28;20273;-79
2021/01/23 04:20:47;;;;;;;12.37;8.30;;;3.20;99.90;;;;;;4973534;28;20235;-79
2021/01/23 04:23:13;;;;;;;10.75;7.30;;;3.20;99.90;;;;;;4973107;28;20454;-79
2021/01/23 04:25:38;;;;;;;12.10;7.63;;;3.20;99.90;;;;;;4973135;28;20274;-79
2021/01/23 04:28:04;;;;;;;10.70;7.00;;;3.20;99.90;;;;;;4972764;28;20207;-79
2021/01/23 04:30:30;;;;;;;10.83;6.90;;;3.30;99.90;;;;;;4973405;28;20553;-79
2021/01/23 04:32:56;;;;;;;9.57;5.90;;;3.30;99.90;;;;;;4972929;28;20270;-79
2021/01/23 04:35:21;;;;;;;8.83;7.30;;;3.30;99.90;;;;;;4973204;28;20222;-79
2021/01/23 04:37:47;;;;;;;10.03;7.37;;;3.40;99.90;;;;;;4972590;28;20226;-79
2021/01/23 04:40:13;;;;;;;11.98;7.95;;;3.40;99.90;;;;;;4972544;28;20195;-79
2021/01/23 04:42:41;;;;;;;16.75;8.35;;;3.40;99.90;;;;;;4972515;28;20287;-79
2021/01/23 04:45:09;;;;;;;16.55;6.88;;;3.50;99.90;;;;;;4972736;28;20198;-79
2021/01/23 04:47:35;;;;;;;9.45;6.50;;;3.50;99.90;;;;;;4972452;28;20342;-79
2021/01/23 04:50:01;;;;;;;12.63;7.00;;;3.50;99.90;;;;;;4972831;28;20725;-79
2021/01/23 04:52:27;;;;;;;8.10;5.97;;;3.40;99.90;;;;;;4972293;28;20237;-79
2021/01/23 04:54:53;;;;;;;12.03;6.80;;;3.50;99.90;;;;;;4972734;28;20199;-79
2021/01/23 04:57:19;;;;;;;9.23;6.05;;;3.40;99.90;;;;;;4972400;28;20215;-79
2021/01/23 04:59:46;;;;;;;8.53;6.93;;;3.50;99.90;;;;;;4973136;28;20194;-78
2021/01/23 05:02:21;;;;;;;10.43;6.70;;;3.60;99.90;;;;;;4972278;28;20210;-79
2021/01/23 05:04:57;;;;;;;9.77;7.35;;;3.70;99.90;;;;;;4972808;28;20197;-79
2021/01/23 05:07:26;;;;;;;10.35;6.28;;;3.60;99.90;;;;;;4972108;28;20214;-79
2021/01/23 05:09:52;;;;;;;13.15;8.30;;;3.60;99.90;;;;;;4972879;28;20167;-79
2021/01/23 05:12:34;;;;;;;8.73;6.28;;;3.70;99.90;;;;;;4972405;28;20218;-79
2021/01/23 05:14:59;;;;;;;10.88;6.40;;;3.60;99.90;;;;;;4972630;28;20206;-78
2021/01/23 05:17:25;;;;;;;12.50;6.80;;;3.60;99.90;;;;;;4972780;28;20223;-79
2021/01/23 05:19:51;;;;;;;7.47;6.53;;;3.60;99.90;;;;;;4972737;28;20178;-79
2021/01/23 05:22:17;;;;;;;11.13;7.10;;;3.60;99.90;;;;;;4972421;28;20215;-79
2021/01/23 05:24:50;;;;;;;9.87;6.50;;;3.50;99.90;;;;;;4972747;28;20273;-79
2021/01/23 05:27:16;;;;;;;8.13;6.88;;;3.50;99.90;;;;;;4973684;28;20885;-79
2021/01/23 05:29:58;;;;;;;8.77;6.70;;;3.50;99.90;;;;;;4976591;28;20167;-79
2021/01/23 05:32:24;;;;;;;9.70;6.38;;;3.50;99.90;;;;;;4976143;28;20215;-79
2021/01/23 05:34:50;;;;;;;11.73;7.10;;;3.50;99.90;;;;;;4976211;28;20230;-79
2021/01/23 05:37:33;;;;;;;7.83;5.90;;;3.50;99.90;;;;;;4975739;28;20624;-79
2021/01/23 05:39:59;;;;;;;8.85;6.22;;;3.50;99.90;;;;;;4976095;28;20173;-79
2021/01/23 05:42:25;;;;;;;9.43;7.10;;;3.40;99.90;;;;;;4975707;28;20542;-79
2021/01/23 05:45:10;;;;;;;11.20;6.90;;;3.40;99.90;;;;;;4976125;28;20430;-79
2021/01/23 05:47:37;;;;;;;7.45;5.68;;;3.40;99.90;;;;;;4976020;28;20613;-79
2021/01/23 05:50:07;;;;;;;8.18;5.88;;;3.40;99.90;;;;;;4959134;28;20278;-79
2021/01/23 05:52:34;;;;;;;14.52;7.40;;;3.40;99.90;;;;;;4975681;28;20289;-79
2021/01/23 05:55:01;;;;;;;9.95;6.95;;;3.30;99.90;;;;;;4976120;28;20203;-79
2021/01/23 05:57:28;;;;;;;11.75;6.68;;;3.30;99.90;;;;;;4975617;28;20640;-79
2021/01/23 05:59:54;;;;;;;9.43;6.57;;;3.30;99.90;;;;;;4976361;28;20175;-79
2021/01/23 06:02:22;;;;;;;9.32;6.15;;;3.30;99.90;;;;;;4975735;28;20219;-79
2021/01/23 06:04:49;;;;;;;6.72;5.53;;;3.30;99.90;;;;;;4958888;28;20195;-79
2021/01/23 06:07:40;;;;;;;9.15;6.38;;;3.30;99.90;;;;;;4975635;28;20217;-79
2021/01/23 06:10:25;;;;;;;8.80;6.32;;;3.40;99.90;;;;;;4976051;28;20246;-79
2021/01/23 06:12:54;;;;;;;6.80;5.97;;;3.40;99.90;;;;;;4975238;28;20297;-79
2021/01/23 06:15:32;;;;;;;8.75;6.85;;;3.40;99.90;;;;;;4975914;28;20187;-79
2021/01/23 06:18:22;;;;;;;7.53;6.05;;;3.40;99.90;;;;;;4975117;28;20277;-79
2021/01/23 06:20:49;;;;;;;9.20;5.93;;;3.40;99.90;;;;;;4975790;28;20265;-79
2021/01/23 06:23:16;;;;;;;8.27;6.25;;;3.50;99.90;;;;;;4975027;28;20682;-79
2021/01/23 06:25:53;;;;;;;8.98;6.95;;;3.50;99.90;;;;;;4975773;28;20199;-79
2021/01/23 06:28:22;;;;;;;7.63;5.63;;;3.50;99.90;;;;;;4975196;28;20217;-79
2021/01/23 06:30:52;;;;;;;9.45;7.00;;;3.50;99.90;;;;;;4975629;28;20187;-79
2021/01/23 06:33:23;;;;;;;13.38;7.28;;;3.50;99.90;;;;;;4974965;28;20226;-79
2021/01/23 06:36:10;;;;;;;10.15;6.00;;;3.50;99.90;;;;;;4975631;28;20581;-79
2021/01/23 06:38:37;;;;;;;9.32;6.82;;;3.50;99.90;;;;;;4973971;28;20227;-80
2021/01/23 06:41:24;;;;;;;9.43;7.05;;;3.60;99.90;;;;;;4975229;28;20250;-79
2021/01/23 06:44:09;;;;;;;8.40;5.47;;;3.60;99.90;;;;;;4974604;28;20287;-79
2021/01/23 06:46:43;;;;;;;7.88;5.95;;;3.60;99.90;;;;;;4975363;28;20655;-79
2021/01/23 06:49:14;;;;;;;7.05;5.68;;;3.60;99.90;;;;;;4960579;28;20235;-79
2021/01/23 06:51:42;;;;;;;7.22;5.78;;;3.80;99.90;;;;;;4974887;28;20732;-79
2021/01/23 06:54:18;;;;;;;8.80;5.47;;;3.70;99.90;;;;;;4974383;28;20253;-79
2021/01/23 06:56:46;;;;;;;6.20;4.72;;;3.70;99.90;;;;;;4974213;28;20222;-79
2021/01/23 06:59:25;;;;;;;7.43;4.75;;;3.70;99.90;;;;;;4975197;28;20191;-79
2021/01/23 07:02:02;;;;;;;6.25;4.65;;;3.70;99.90;;;;;;4974062;28;20561;-79
2021/01/23 07:04:32;;;;;;;7.30;4.50;;;3.80;99.90;;;;;;4974536;28;20199;-79
2021/01/23 07:06:59;;;;;;;5.85;4.28;;;3.70;99.90;;;;;;4974097;28;20282;-79
2021/01/23 07:10:04;;;;;;;5.35;4.53;;;3.80;99.90;;;;;;4974156;28;20607;-79
2021/01/23 07:12:43;;;;;;;4.78;3.72;;;3.70;99.90;;;;;;4883113;29;20245;-79
2021/01/23 07:15:31;;;;;;;5.85;3.80;;;3.70;99.90;;;;;;4963024;28;20586;-79
2021/01/23 07:17:57;;;;;;;6.65;4.40;;;3.60;99.90;;;;;;4970422;28;20234;-79
2021/01/23 07:20:24;;;;;;;4.60;3.80;;;3.60;99.90;;;;;;4973935;28;20195;-79
2021/01/23 07:22:50;;;;;;;4.40;4.00;;;3.60;99.90;;;;;;4973349;28;20225;-79
2021/01/23 07:25:17;;;;;;;5.20;4.03;;;3.60;99.90;;;;;;4973821;28;20195;-79
2021/01/23 07:27:44;;;;;;;6.07;4.57;;;3.60;99.90;;;;;;4973130;28;20724;-79
2021/01/23 07:30:17;;;;;;;6.05;3.58;;;3.60;99.90;;;;;;4973756;28;20266;-79
2021/01/23 07:32:46;;;;;;;5.57;3.78;;;3.60;99.90;;;;;;4955642;28;20215;-79
2021/01/23 07:35:13;;;;;;;5.55;3.70;;;3.60;99.90;;;;;;4973847;28;20199;-79
2021/01/23 07:37:47;;;;;;;4.20;3.45;;;3.60;99.90;;;;;;4972913;28;20211;-79
2021/01/23 07:40:24;;;;;;;4.47;3.40;;;3.60;99.90;;;;;;4973424;28;20179;-79
2021/01/23 07:42:51;;;;;;;5.38;3.60;;;3.60;99.90;;;;;;4972668;28;20214;-79
2021/01/23 07:45:18;;;;;;;6.30;4.10;;;3.60;99.90;;;;;;4973602;28;20195;-79
2021/01/23 07:47:54;;;;;;;6.80;4.38;;;3.60;99.90;;;;;;4972797;28;20278;-79
2021/01/23 07:50:23;;;;;;;4.30;3.63;;;3.60;99.90;;;;;;4956812;28;20371;-79
2021/01/23 07:52:49;;;;;;;6.95;4.68;;;3.60;99.90;;;;;;4972956;28;20294;-79
2021/01/23 07:55:37;;;;;;;6.27;4.70;;;3.50;99.90;;;;;;4973927;28;20203;-79
2021/01/23 07:58:09;;;;;;;6.97;5.40;;;3.50;99.90;;;;;;4973211;28;20238;-78
2021/01/23 08:00:35;;;;;;;5.47;4.35;;;3.50;99.90;;;;;;4973908;28;20180;-79
2021/01/23 08:03:01;;;;;;;5.45;4.28;;;3.50;99.90;;;;;;4972196;28;20747;-78
2021/01/23 08:05:47;;;;;;;6.45;4.57;;;3.50;99.90;;;;;;4970360;28;20321;-77
2021/01/23 08:08:31;;;;;;;20.48;13.50;;;3.40;99.90;;;;;;4972006;28;20215;-77
2021/01/23 08:10:58;;;;;;;28.27;14.15;;;;;;;;;;4975492;28;20253;-76
2021/01/23 08:13:26;;;;;;;15.00;8.75;;;3.80;99.90;;;;;;4982748;28;20214;-76
2021/01/23 08:15:53;;;;;;;27.27;11.05;;;4.00;99.90;;;;;;4982071;28;20187;-76
2021/01/23 08:18:20;;;;;;;14.02;7.97;;;4.10;99.90;;;;;;4960745;28;20222;-75
2021/01/23 08:20:48;;;;;;;11.02;6.35;;;4.30;99.90;;;;;;4982874;28;20199;-76
2021/01/23 08:23:18;;;;;;;21.17;7.43;;;4.30;99.90;;;;;;4963670;28;20215;-76
2021/01/23 08:25:49;;;;;;;14.10;8.85;;;4.30;99.90;;;;;;4966073;28;20288;-76
2021/01/23 08:28:43;;;;;;;10.25;6.65;;;4.40;99.90;;;;;;4965535;28;20259;-76
2021/01/23 08:31:23;;;;;;;8.50;6.45;;;4.40;99.90;;;;;;4981417;28;20168;-76
2021/01/23 08:33:56;;;;;;;7.70;5.85;;;4.50;99.90;;;;;;4980608;28;20606;-76
2021/01/23 08:36:24;;;;;;;7.00;5.85;;;4.40;99.90;;;;;;4965643;28;20167;-76
2021/01/23 08:39:00;;;;;;;8.57;5.30;;;4.30;99.90;;;;;;4983086;28;20218;-76
2021/01/23 08:41:25;;;;;;;10.02;6.45;;;4.30;99.90;;;;;;4964100;28;20668;-76
2021/01/23 08:43:51;;;;;;;7.50;6.13;;;4.40;99.90;;;;;;4981259;28;20214;-76
2021/01/23 08:46:17;;;;;;;11.70;6.10;;;4.40;99.90;;;;;;4980833;28;20190;-76
2021/01/23 08:48:43;;;;;;;10.70;5.10;;;4.40;99.90;;;;;;4979997;28;20255;-76
2021/01/23 08:51:08;;;;;;;8.70;5.50;;;4.30;99.90;;;;;;4984684;28;20175;-76
2021/01/23 08:53:34;;;;;;;5.80;5.20;;;4.50;99.90;;;;;;4983101;28;20467;-76
2021/01/23 08:56:00;;;;;;;10.70;5.40;;;4.50;99.90;;;;;;4967300;28;20207;-76
2021/01/23 08:58:25;;;;;;;9.50;5.10;;;4.60;99.90;;;;;;4983843;28;20285;-76
2021/01/23 09:00:51;;;;;;;9.00;5.10;;;4.70;99.90;;;;;;4968716;28;20218;-77
2021/01/23 09:03:17;;;;;;;16.13;5.00;;;4.80;99.90;;;;;;4970555;28;20741;-76
2021/01/23 09:05:42;;;;;;;9.27;5.20;;;4.90;99.90;;;;;;4987391;28;20197;-76
2021/01/23 09:08:08;;;;;;;13.20;4.90;;;4.90;99.90;;;;;;4986750;28;20230;-77
2021/01/23 09:10:34;;;;;;;9.30;5.00;;;4.90;99.90;;;;;;4989128;28;20167;-76
2021/01/23 09:12:59;;;;;;;6.80;5.17;;;4.90;99.90;;;;;;4986803;28;20242;-76
2021/01/23 09:15:25;;;;;;;7.47;5.73;;;4.90;99.90;;;;;;4987279;28;20206;-76
2021/01/23 09:17:51;;;;;;;6.40;4.73;;;5.00;99.90;;;;;;4969971;28;20223;-76
2021/01/23 09:20:16;;;;;;;5.50;4.33;;;5.00;99.90;;;;;;4988840;28;20183;-76
2021/01/23 09:22:42;;;;;;;7.23;5.30;;;5.00;99.90;;;;;;4984796;28;20266;-76
2021/01/23 09:25:09;;;;;;;7.00;4.73;;;4.90;99.90;;;;;;4989704;28;20553;-76
2021/01/23 09:27:35;;;;;;;6.20;4.80;;;5.00;99.90;;;;;;4988871;28;20219;-75
2021/01/23 09:30:01;;;;;;;7.03;4.43;;;5.20;99.90;;;;;;4988910;28;20242;-76
2021/01/23 09:32:27;;;;;;;5.57;4.15;;;5.20;99.90;;;;;;4988025;28;20226;-76
2021/01/23 09:34:54;;;;;;;9.18;5.07;;;5.20;99.90;;;;;;4971215;28;20195;-76
2021/01/23 09:37:23;;;;;;;11.85;5.60;;;5.10;99.90;;;;;;4986392;28;20226;-76
2021/01/23 09:39:49;;;;;;;6.15;5.40;;;5.10;99.90;;;;;;4989422;28;20187;-76
2021/01/23 09:42:15;;;;;;;8.90;6.22;;;5.20;99.90;;;;;;4989558;28;20199;-76
2021/01/23 09:44:41;;;;;;;7.57;6.00;;;5.30;99.90;;;;;;4989264;28;20557;-76
2021/01/23 09:47:09;;;;;;;6.32;5.68;;;5.40;99.90;;;;;;4955412;28;20477;-76
2021/01/23 09:49:36;;;;;;;9.50;5.93;;;5.30;99.90;;;;;;4988968;28;20195;-76
2021/01/23 09:52:02;;;;;;;7.53;5.28;;;5.20;99.90;;;;;;4987529;28;20222;-76
2021/01/23 09:54:28;;;;;;;7.67;5.50;;;5.50;99.90;;;;;;4990189;28;20199;-76
2021/01/23 09:56:54;;;;;;;10.73;5.60;;;5.70;99.90;;;;;;4987589;28;20465;-76
2021/01/23 09:59:19;;;;;;;6.23;5.33;;;5.70;99.90;;;;;;4988262;28;20214;-76
2021/01/23 10:01:45;;;;;;;6.70;5.03;;;5.90;99.90;;;;;;4988919;28;20164;-76
2021/01/23 10:04:11;;;;;;;5.10;4.47;;;5.90;99.90;;;;;;4987951;28;20270;-75
2021/01/23 10:06:36;;;;;;;20.23;7.40;;;5.90;99.90;;;;;;4988871;28;20168;-76
2021/01/23 10:09:02;;;;;;;18.30;4.20;;;6.10;99.90;;;;;;4988637;28;20269;-76
2021/01/23 10:11:28;;;;;;;8.25;4.28;;;6.20;99.90;;;;;;4989825;28;20167;-76
2021/01/23 10:13:54;;;;;;;7.60;4.30;;;6.20;99.90;;;;;;4988364;28;20222;-76
2021/01/23 10:16:19;;;;;;;5.07;4.57;;;6.20;99.90;;;;;;4989916;28;20179;-75
2021/01/23 10:18:45;;;;;;;10.03;4.50;;;6.20;99.90;;;;;;4973848;28;20223;-76
2021/01/23 10:21:11;;;;;;;6.37;4.37;;;6.30;99.90;;;;;;4987225;28;20167;-76
2021/01/23 10:23:37;;;;;;;5.03;4.53;;;6.40;99.90;;;;;;4988515;28;20712;-76
2021/01/23 10:26:02;;;;;;;6.03;3.83;;;6.50;99.90;;;;;;4989795;28;20186;-75
2021/01/23 10:28:28;;;;;;;4.57;3.60;;;6.60;99.90;;;;;;4987241;28;20223;-76
2021/01/23 10:30:54;;;;;;;5.57;3.73;;;6.60;99.90;;;;;;4988344;28;20250;-76
2021/01/23 10:33:20;;;;;;;3.80;3.30;;;6.70;99.20;;;;;;4987165;28;20287;-75
2021/01/23 10:35:45;;;;;;;4.67;4.13;;;6.60;99.00;;;;;;4988265;28;20199;-76
2021/01/23 10:38:11;;;;;;;4.93;3.60;;;6.50;99.40;;;;;;4988309;28;20226;-75
2021/01/23 10:40:37;;;;;;;3.50;2.60;;;6.60;99.90;;;;;;4988349;28;20477;-76
2021/01/23 10:43:03;;;;;;;6.15;3.08;;;6.70;97.50;;;;;;4967759;28;20225;-76
2021/01/23 10:45:29;;;;;;;4.70;2.30;;;6.80;97.60;;;;;;4984723;28;20642;-76
2021/01/23 10:47:55;;;;;;;2.60;2.40;;;6.80;94.50;;;;;;4987431;28;20282;-75
2021/01/23 10:50:25;;;;;;;6.00;2.97;;;6.90;97.80;;;;;;4987402;28;20237;-76
2021/01/23 10:52:55;;;;;;;4.75;2.90;;;6.80;97.60;;;;;;4986587;28;20459;-76
2021/01/23 10:55:21;;;;;;;4.05;2.15;;;6.70;95.50;;;;;;4960176;28;20203;-76
2021/01/23 10:57:52;;;;;;;3.00;2.40;;;6.60;93.80;;;;;;4997701;28;20265;-76
2021/01/23 11:00:18;;;;;;;2.90;2.03;;;6.60;94.50;;;;;;4994054;28;20590;-76
2021/01/23 11:02:44;;;;;;;8.00;4.10;;;6.50;93.90;;;;;;4977987;28;20271;-76
2021/01/23 11:05:10;;;;;;;6.73;4.27;;;6.40;94.90;;;;;;4993216;28;20205;-76
2021/01/23 11:07:36;;;;;;;5.75;4.05;;;6.40;94.50;;;;;;4990416;28;20688;-76
2021/01/23 11:10:02;;;;;;;3.77;2.90;;;6.30;95.40;;;;;;4992544;28;20195;-76
2021/01/23 11:12:28;;;;;;;3.13;2.70;;;6.30;95.90;;;;;;4979061;28;20282;-77
2021/01/23 11:14:53;;;;;;;3.43;2.30;;;6.20;95.30;;;;;;4946682;28;20196;-77
2021/01/23 11:17:19;;;;;;;6.23;2.50;;;6.20;95.80;;;;;;4972753;28;20207;-77
2021/01/23 11:19:45;;;;;;;3.20;2.37;;;6.20;95.50;;;;;;4971815;28;20673;-77
2021/01/23 11:22:10;;;;;;;4.23;2.07;;;6.20;95.90;;;;;;4978587;28;20214;-77
2021/01/23 11:24:44;;;;;;;6.03;3.03;;;6.10;96.50;;;;;;4988709;28;20176;-76
2021/01/23 11:27:17;;;;;;;2.80;2.08;;;6.10;95.80;;;;;;4966421;28;20206;-76
2021/01/23 11:29:42;;;;;;;3.95;2.22;;;6.10;96.50;;;;;;4957531;28;20210;-77
2021/01/23 11:32:08;;;;;;;2.07;1.87;;;6.10;95.50;;;;;;4965778;28;20217;-76
2021/01/23 11:34:38;;;;;;;4.90;2.27;;;6.20;95.40;;;;;;4994925;28;20191;-76
2021/01/23 11:37:04;;;;;;;6.63;3.20;;;6.20;95.60;;;;;;4994883;28;20207;-75
2021/01/23 11:39:30;;;;;;;4.57;2.63;;;6.20;96.80;;;;;;4985010;28;20238;-76
2021/01/23 11:42:08;;;;;;;3.77;2.20;;;6.20;96.50;;;;;;4989282;28;20454;-76
2021/01/23 11:44:34;;;;;;;3.50;2.00;;;6.10;96.50;;;;;;4977186;28;20220;-76
2021/01/23 11:47:07;;;;;;;3.33;2.00;;;6.10;96.20;;;;;;4989676;28;20367;-76
2021/01/23 11:49:33;;;;;;;2.60;2.40;;;6.10;96.10;;;;;;4980696;28;20206;-77
2021/01/23 11:51:59;;;;;;;2.43;1.77;;;6.20;96.50;;;;;;4970394;28;20184;-77
2021/01/23 11:54:25;;;;;;;2.67;2.22;;;6.20;95.80;;;;;;4966337;28;20198;-77
2021/01/23 11:56:54;;;;;;;5.63;2.40;;;6.20;94.70;;;;;;4966290;28;20242;-76
2021/01/23 11:59:20;;;;;;;4.18;2.30;;;6.20;95.70;;;;;;4992805;28;20211;-76
2021/01/23 12:01:47;;;;;;;5.90;2.42;;;6.30;95.30;;;;;;4994681;28;20199;-76
2021/01/23 12:04:13;;;;;;;2.05;1.77;;;6.20;95.90;;;;;;4973932;28;20199;-77
2021/01/23 12:06:38;;;;;;;4.13;1.93;;;6.20;95.60;;;;;;4972929;28;20569;-77
2021/01/23 12:09:04;;;;;;;3.13;2.07;;;6.30;95.30;;;;;;4971910;28;20242;-78
2021/01/23 12:11:31;;;;;;;4.40;2.40;;;6.30;95.00;;;;;;4981187;28;20199;-76
2021/01/23 12:13:58;;;;;;;7.63;2.70;;;6.30;95.00;;;;;;4967774;28;20466;-77
2021/01/23 12:16:24;;;;;;;5.35;2.58;;;6.20;95.80;;;;;;4970468;28;20745;-77
2021/01/23 12:18:50;;;;;;;6.95;2.50;;;6.20;95.70;;;;;;4967882;28;20298;-77
2021/01/23 12:21:16;;;;;;;2.13;1.73;;;6.20;95.70;;;;;;4972281;28;20282;-77
2021/01/23 12:23:47;;;;;;;5.70;2.20;;;6.20;95.50;;;;;;4985122;28;20204;-76
2021/01/23 12:26:14;;;;;;;2.50;2.30;;;6.40;95.70;;;;;;4956089;28;20434;-77
2021/01/23 12:28:40;;;;;;;4.33;2.30;;;6.40;95.50;;;;;;4971834;28;20266;-77
2021/01/23 12:31:06;;;;;;;4.57;2.33;;;6.40;95.20;;;;;;4954133;28;20266;-77
2021/01/23 12:33:32;;;;;;;4.13;2.40;;;6.60;95.20;;;;;;4954958;28;20207;-77
2021/01/23 12:35:57;;;;;;;3.10;2.30;;;6.70;94.60;;;;;;4971945;28;20179;-78
2021/01/23 12:38:23;;;;;;;2.80;1.67;;;6.70;94.60;;;;;;4971503;28;20215;-77
2021/01/23 12:40:49;;;;;;;4.67;2.07;;;6.60;93.50;;;;;;4972935;28;20175;-77
2021/01/23 12:43:15;;;;;;;3.07;1.80;;;6.60;94.70;;;;;;4972345;28;20761;-77
2021/01/23 12:45:40;;;;;;;2.40;1.73;;;6.60;95.00;;;;;;4971870;28;20273;-77
2021/01/23 12:48:07;;;;;;;3.27;2.60;;;6.50;95.00;;;;;;4954126;28;20214;-77
2021/01/23 12:50:43;;;;;;;2.72;2.45;;;6.60;94.50;;;;;;4988107;28;20259;-76
2021/01/23 12:53:15;;;;;;;2.35;2.08;;;6.60;94.80;;;;;;4970661;28;20221;-76
2021/01/23 12:55:53;;;;;;;1.85;1.75;;;6.60;94.70;;;;;;4994685;28;20185;-76
2021/01/23 12:58:29;;;;;;;2.70;1.70;;;6.60;95.20;;;;;;4966412;28;20239;-76
2021/01/23 13:01:20;;;;;;;2.15;1.95;;;6.70;93.80;;;;;;4989936;28;20171;-76
2021/01/23 13:03:47;;;;;;;2.95;1.90;;;6.70;94.60;;;;;;4969352;28;20211;-77